Time;durP1;ratioP1;P1;durP2;ratioP2;P2;SDS_P1;SDS_P2;PMS_P1;PMS_P2;Temp;Humidity;BMP_temperature;BMP_pressure;BME280_temperature;BME280_humidity;BME280_pressure;Samples;Min_cycle;Max_cycle;Signal;HPM_P1;HPM_P2
2023/09/09 00:00:51;;;;;;;32.72;23.10;;;;;;;18.00;100.00;101437.44;6178276;23;20422;-77
2023/09/09 00:03:18;;;;;;;31.40;23.40;;;;;;;17.96;100.00;101436.84;6179483;23;20016;-77
2023/09/09 00:05:43;;;;;;;32.45;23.85;;;;;;;17.93;100.00;101433.59;6180742;23;20040;-77
2023/09/09 00:08:08;;;;;;;31.25;22.77;;;;;;;17.93;100.00;101439.03;6178403;23;20001;-77
2023/09/09 00:10:35;;;;;;;29.98;23.02;;;;;;;17.89;100.00;101438.44;6176143;23;20031;-77
2023/09/09 00:13:03;;;;;;;30.35;23.08;;;;;;;17.87;100.00;101434.16;6178183;23;20000;-77
2023/09/09 00:15:29;;;;;;;32.65;24.05;;;;;;;17.87;100.00;101435.00;6179135;23;20008;-77
2023/09/09 00:17:55;;;;;;;31.10;22.83;;;;;;;17.85;100.00;101430.69;6178818;23;20305;-78
2023/09/09 00:20:35;;;;;;;33.00;24.00;;;;;;;17.84;100.00;101431.72;6178095;23;20367;-77
2023/09/09 00:23:07;;;;;;;31.10;23.40;;;;;;;17.79;100.00;101429.44;6178009;23;20044;-77
2023/09/09 00:25:36;;;;;;;31.45;22.92;;;;;;;17.77;100.00;101431.44;6181046;23;20522;-77
2023/09/09 00:28:02;;;;;;;30.95;24.60;;;;;;;17.76;100.00;101424.25;6180774;23;20033;-77
2023/09/09 00:30:28;;;;;;;30.02;22.75;;;;;;;17.74;100.00;101423.56;6178323;23;20016;-77
2023/09/09 00:32:54;;;;;;;30.45;24.13;;;;;;;17.73;100.00;101421.84;6179594;23;20136;-77
2023/09/09 00:35:19;;;;;;;32.75;23.35;;;;;;;17.71;100.00;101423.88;6180712;23;20172;-77
2023/09/09 00:37:45;;;;;;;29.77;23.13;;;;;;;17.68;100.00;101424.16;6179278;23;20012;-77
2023/09/09 00:40:11;;;;;;;30.98;23.73;;;;;;;17.68;100.00;101416.84;6180488;23;20009;-77
2023/09/09 00:42:37;;;;;;;33.85;25.20;;;;;;;17.67;100.00;101426.00;6178341;23;20001;-77
2023/09/09 00:45:02;;;;;;;29.65;22.75;;;;;;;17.67;100.00;101420.56;6179173;23;20230;-77
2023/09/09 00:47:28;;;;;;;29.00;23.13;;;;;;;17.64;100.00;101419.00;6178460;23;20009;-77
2023/09/09 00:49:54;;;;;;;31.77;23.30;;;;;;;17.62;100.00;101415.56;6180737;23;20036;-75
2023/09/09 00:52:19;;;;;;;34.53;23.95;;;;;;;17.61;100.00;101419.31;6178809;23;20473;-77
2023/09/09 00:54:45;;;;;;;32.90;23.83;;;;;;;17.60;100.00;101422.13;6180587;23;20442;-76
2023/09/09 00:57:11;;;;;;;33.00;26.85;;;;;;;17.59;100.00;101425.88;6180066;23;20005;-77
2023/09/09 00:59:38;;;;;;;35.50;25.20;;;;;;;17.58;100.00;101419.56;6178542;23;20346;-77
2023/09/09 01:02:03;;;;;;;32.42;25.00;;;;;;;17.56;100.00;101424.31;6179053;23;19997;-77
2023/09/09 01:04:30;;;;;;;32.08;24.85;;;;;;;17.54;100.00;101425.44;6178646;23;20099;-78
2023/09/09 01:07:00;;;;;;;32.50;25.02;;;;;;;17.52;100.00;101422.03;6180462;23;20009;-77
2023/09/09 01:09:25;;;;;;;32.25;25.15;;;;;;;17.50;100.00;101429.44;6179819;23;20316;-77
2023/09/09 01:11:50;;;;;;;31.00;24.27;;;;;;;17.50;100.00;101426.72;6180212;23;20007;-77
2023/09/09 01:14:16;;;;;;;35.38;26.25;;;;;;;17.49;100.00;101431.31;6179373;23;20080;-77
2023/09/09 01:16:43;;;;;;;33.78;27.55;;;;;;;17.46;100.00;101427.00;6177860;23;20107;-77
2023/09/09 01:19:08;;;;;;;33.33;27.45;;;;;;;17.43;100.00;101426.47;6180325;23;20004;-77
2023/09/09 01:21:35;;;;;;;34.70;26.60;;;;;;;17.41;100.00;101423.88;6178337;23;20473;-77
2023/09/09 01:24:01;;;;;;;35.80;25.98;;;;;;;17.39;100.00;101425.88;6177739;23;20005;-77
2023/09/09 01:26:26;;;;;;;31.50;24.63;;;;;;;17.37;100.00;101419.72;6178018;23;20394;-77
2023/09/09 01:28:52;;;;;;;32.97;26.35;;;;;;;17.36;100.00;101414.44;6179390;23;20007;-77
2023/09/09 01:31:17;;;;;;;32.90;26.40;;;;;;;17.35;100.00;101415.44;6179914;23;20033;-77
2023/09/09 01:33:42;;;;;;;31.35;24.58;;;;;;;17.33;100.00;101414.72;6179490;23;20438;-77
2023/09/09 01:36:09;;;;;;;31.75;25.08;;;;;;;17.32;100.00;101415.72;6180446;23;20630;-77
2023/09/09 01:38:35;;;;;;;32.05;26.55;;;;;;;17.30;100.00;101419.44;6179949;23;20013;-77
2023/09/09 01:41:02;;;;;;;33.13;27.98;;;;;;;17.28;100.00;101415.16;6179098;23;20093;-77
2023/09/09 01:43:27;;;;;;;37.30;29.02;;;;;;;17.27;100.00;101418.88;6178387;23;20012;-77
2023/09/09 01:45:53;;;;;;;38.28;33.13;;;;;;;17.24;100.00;101419.16;6176652;23;20016;-77
2023/09/09 01:48:18;;;;;;;41.25;33.40;;;;;;;17.24;100.00;101416.44;6178435;23;20005;-77
2023/09/09 01:50:46;;;;;;;41.92;33.97;;;;;;;17.22;100.00;101421.16;6179819;23;20005;-77
2023/09/09 01:53:12;;;;;;;38.30;32.10;;;;;;;17.21;100.00;101419.44;6178185;23;20083;-77
2023/09/09 01:55:37;;;;;;;38.53;30.98;;;;;;;17.20;100.00;101423.16;6178990;23;20343;-77
2023/09/09 01:58:03;;;;;;;37.65;30.83;;;;;;;17.16;100.00;101416.28;6177416;23;20015;-77
2023/09/09 02:00:29;;;;;;;38.53;30.02;;;;;;;17.14;100.00;101418.31;6180315;23;20005;-76
2023/09/09 02:02:55;;;;;;;36.00;28.23;;;;;;;17.12;100.00;101410.28;6176719;23;20387;-77
2023/09/09 02:05:20;;;;;;;35.35;26.25;;;;;;;17.10;100.00;101417.72;6178937;23;20059;-77
2023/09/09 02:07:45;;;;;;;35.58;27.40;;;;;;;17.10;100.00;101407.72;6177041;23;20025;-77
2023/09/09 02:10:11;;;;;;;34.10;26.88;;;;;;;17.06;100.00;101411.72;6179687;23;20004;-74
2023/09/09 02:12:36;;;;;;;33.33;26.35;;;;;;;17.04;100.00;101408.28;6206791;23;20001;-74
2023/09/09 02:15:02;;;;;;;35.30;28.58;;;;;;;17.04;100.00;101408.28;6207381;23;20036;-74
2023/09/09 02:17:27;;;;;;;36.88;30.05;;;;;;;17.02;100.00;101404.84;6207017;23;19993;-74
2023/09/09 02:19:57;;;;;;;38.80;34.00;;;;;;;17.01;100.00;101413.97;6208571;23;20032;-74
2023/09/09 02:22:23;;;;;;;38.00;33.55;;;;;;;16.99;100.00;101407.84;6208429;23;19997;-74
2023/09/09 02:24:55;;;;;;;39.25;33.45;;;;;;;16.96;100.00;101415.44;6208041;23;20004;-74
2023/09/09 02:27:22;;;;;;;38.92;30.98;;;;;;;16.92;100.00;101415.69;6208659;23;20028;-74
2023/09/09 02:29:47;;;;;;;39.53;29.70;;;;;;;16.89;100.00;101417.84;6207092;23;20017;-74
2023/09/09 02:32:12;;;;;;;37.47;31.20;;;;;;;16.87;100.00;101417.97;6208546;23;20008;-74
2023/09/09 02:34:38;;;;;;;40.72;34.83;;;;;;;16.85;100.00;101410.94;6207238;23;20009;-75
2023/09/09 02:37:17;;;;;;;40.08;34.78;;;;;;;16.87;100.00;101411.66;6207337;23;20009;-75
2023/09/09 02:39:44;;;;;;;42.50;36.55;;;;;;;16.86;100.00;101418.94;6208477;23;19997;-75
2023/09/09 02:42:12;;;;;;;44.53;39.65;;;;;;;16.86;100.00;101418.09;6209024;23;19993;-75
2023/09/09 02:44:37;;;;;;;41.33;36.83;;;;;;;16.87;100.00;101411.66;6208995;23;20057;-75
2023/09/09 02:47:02;;;;;;;42.72;38.13;;;;;;;16.85;100.00;101409.09;6209707;23;19997;-75
2023/09/09 02:49:28;;;;;;;44.45;39.70;;;;;;;16.86;100.00;101415.38;6210183;23;20130;-75
2023/09/09 02:51:53;;;;;;;45.63;40.42;;;;;;;16.86;100.00;101418.09;6209456;23;20012;-75
2023/09/09 02:54:18;;;;;;;46.42;39.30;;;;;;;16.86;100.00;101409.94;6208578;23;19993;-75
2023/09/09 02:56:43;;;;;;;46.20;39.97;;;;;;;16.86;100.00;101412.66;6210750;23;20004;-75
2023/09/09 02:59:09;;;;;;;48.03;42.05;;;;;;;16.85;100.00;101410.94;6210169;23;20001;-75
2023/09/09 03:01:34;;;;;;;44.50;39.53;;;;;;;16.85;100.00;101411.81;6210614;23;20004;-75
2023/09/09 03:03:59;;;;;;;47.65;42.30;;;;;;;16.83;100.00;101410.22;6210341;23;20016;-75
2023/09/09 03:06:25;;;;;;;52.08;46.33;;;;;;;16.83;100.00;101411.06;6210609;23;20039;-75
2023/09/09 03:08:50;;;;;;;48.28;41.88;;;;;;;16.81;100.00;101414.91;6208785;23;20020;-75
2023/09/09 03:11:15;;;;;;;51.00;45.08;;;;;;;16.77;100.00;101412.47;6208522;23;19993;-75
2023/09/09 03:13:42;;;;;;;50.40;44.35;;;;;;;16.73;100.00;101419.19;6210449;23;20013;-75
2023/09/09 03:16:07;;;;;;;47.25;41.88;;;;;;;16.71;100.00;101410.31;6210601;23;19993;-75
2023/09/09 03:18:33;;;;;;;52.67;43.22;;;;;;;16.70;100.00;101411.31;6209157;23;20023;-75
2023/09/09 03:20:58;;;;;;;48.25;42.88;;;;;;;16.69;100.00;101406.91;6208927;23;20023;-75
2023/09/09 03:23:23;;;;;;;50.67;42.58;;;;;;;16.67;100.00;101408.88;6215226;23;20061;-73
2023/09/09 03:25:49;;;;;;;49.92;44.25;;;;;;;16.66;100.00;101415.34;6240037;23;20013;-74
2023/09/09 03:28:14;;;;;;;48.03;42.85;;;;;;;16.65;100.00;101419.03;6240481;23;20043;-74
2023/09/09 03:30:58;;;;;;;50.10;44.70;;;;;;;16.65;100.00;101402.75;6237770;23;20007;-75
2023/09/09 03:33:26;;;;;;;52.63;40.65;;;;;;;16.62;100.00;101413.00;6210652;23;20009;-75
2023/09/09 03:35:52;;;;;;;48.17;42.85;;;;;;;16.61;100.00;101409.44;6184278;23;20031;-75
2023/09/09 03:38:17;;;;;;;47.40;42.25;;;;;;;16.59;100.00;101408.75;6210768;23;20032;-75
2023/09/09 03:40:42;;;;;;;48.17;40.95;;;;;;;16.57;100.00;101417.03;6210652;23;20058;-75
2023/09/09 03:43:08;;;;;;;47.35;42.15;;;;;;;16.55;100.00;101410.00;6183584;23;20059;-75
2023/09/09 03:45:36;;;;;;;47.40;39.28;;;;;;;16.51;100.00;101403.13;6183961;23;20079;-75
2023/09/09 03:48:04;;;;;;;46.40;41.50;;;;;;;16.51;100.00;101411.28;6208916;23;20494;-75
2023/09/09 03:50:30;;;;;;;54.17;43.65;;;;;;;16.51;100.00;101400.41;6183806;23;20376;-75
2023/09/09 03:52:55;;;;;;;50.15;44.72;;;;;;;16.50;100.00;101410.41;6209294;23;20001;-75
2023/09/09 03:55:20;;;;;;;51.88;45.70;;;;;;;16.49;100.00;101414.13;6184458;23;20107;-75
2023/09/09 03:57:46;;;;;;;52.88;43.42;;;;;;;16.49;100.00;101413.28;6210147;23;20004;-75
2023/09/09 04:00:12;;;;;;;51.30;45.80;;;;;;;16.50;100.00;101414.97;6211205;23;20005;-75
2023/09/09 04:02:38;;;;;;;59.42;49.75;;;;;;;16.50;100.00;101420.41;6209994;23;20013;-75
2023/09/09 04:05:03;;;;;;;52.17;46.30;;;;;;;16.47;100.00;101420.69;6210675;23;20079;-75
2023/09/09 04:07:33;;;;;;;55.30;48.60;;;;;;;16.47;100.00;101420.69;6210649;23;20009;-75
2023/09/09 04:09:58;;;;;;;55.20;49.30;;;;;;;16.43;100.00;101414.69;6183327;23;20012;-75
2023/09/09 04:12:24;;;;;;;56.90;50.75;;;;;;;16.43;100.00;101418.25;6183099;23;20473;-75
2023/09/09 04:14:50;;;;;;;57.33;51.13;;;;;;;16.44;100.00;101419.09;6210305;23;20528;-75
2023/09/09 04:17:15;;;;;;;60.60;53.42;;;;;;;16.41;100.00;101414.81;6210608;23;20363;-75
2023/09/09 04:19:40;;;;;;;61.75;54.92;;;;;;;16.41;100.00;101422.97;6210738;23;20036;-75
2023/09/09 04:22:08;;;;;;;58.58;52.42;;;;;;;16.37;100.00;101416.06;6209859;23;20011;-75
2023/09/09 04:24:34;;;;;;;57.08;50.90;;;;;;;16.35;100.00;101417.19;6183461;23;20008;-75
2023/09/09 04:26:59;;;;;;;62.17;54.55;;;;;;;16.32;100.00;101415.63;6183885;23;20004;-75
2023/09/09 04:29:24;;;;;;;64.82;56.22;;;;;;;16.31;100.00;101419.34;6211061;23;20005;-75
2023/09/09 04:31:50;;;;;;;58.35;51.92;;;;;;;16.27;100.00;101414.31;6210995;23;20489;-75
2023/09/09 04:34:15;;;;;;;59.97;53.42;;;;;;;16.24;100.00;101416.31;6209952;23;20394;-75
2023/09/09 04:36:42;;;;;;;61.63;55.00;;;;;;;16.22;100.00;101420.13;6210121;23;20443;-75
2023/09/09 04:39:07;;;;;;;65.68;58.60;;;;;;;16.21;100.00;101418.44;6182963;23;20445;-75
2023/09/09 04:41:32;;;;;;;66.57;58.78;;;;;;;16.20;100.00;101422.13;6185182;23;20035;-74
2023/09/09 04:43:57;;;;;;;71.43;60.67;;;;;;;16.18;100.00;101433.13;6187570;23;20001;-74
2023/09/09 04:46:23;;;;;;;68.10;58.97;;;;;;;16.15;100.00;101432.53;6188726;23;20062;-74
2023/09/09 04:48:52;;;;;;;75.43;61.95;;;;;;;16.15;100.00;101429.81;6188761;23;20000;-75
2023/09/09 04:51:17;;;;;;;69.70;60.28;;;;;;;16.15;100.00;101429.81;6213276;23;20004;-75
2023/09/09 04:53:42;;;;;;;77.65;64.28;;;;;;;16.12;100.00;101439.09;6188042;23;20032;-74
2023/09/09 04:56:07;;;;;;;72.60;63.00;;;;;;;16.11;100.00;101429.22;6215292;23;20445;-74
2023/09/09 04:58:33;;;;;;;70.57;61.08;;;;;;;16.12;100.00;101424.66;6216571;23;20005;-74
2023/09/09 05:00:58;;;;;;;67.18;59.80;;;;;;;16.11;100.00;101433.81;6188296;23;20799;-74
2023/09/09 05:03:24;;;;;;;85.50;68.82;;;;;;;16.13;100.00;101429.94;6188215;23;20091;-74
2023/09/09 05:05:49;;;;;;;78.07;63.30;;;;;;;16.14;100.00;101431.66;6216451;23;20470;-74
2023/09/09 05:08:14;;;;;;;85.38;66.35;;;;;;;16.15;100.00;101427.97;6215282;23;20027;-73
2023/09/09 05:10:40;;;;;;;88.20;68.72;;;;;;;16.17;100.00;101433.25;6188183;23;20346;-73
2023/09/09 05:13:05;;;;;;;82.50;67.38;;;;;;;16.16;100.00;101435.09;6188938;23;20307;-73
2023/09/09 05:15:30;;;;;;;80.75;65.38;;;;;;;16.16;100.00;101436.97;6187731;23;20095;-74
2023/09/09 05:17:56;;;;;;;71.30;62.00;;;;;;;16.16;100.00;101428.81;6215842;23;20079;-74
2023/09/09 05:20:21;;;;;;;87.18;65.63;;;;;;;16.18;100.00;101432.25;6215726;23;20378;-74
2023/09/09 05:22:47;;;;;;;74.63;62.75;;;;;;;16.18;100.00;101434.97;6215402;23;20000;-73
2023/09/09 05:25:13;;;;;;;79.75;64.20;;;;;;;16.19;100.00;101440.28;6213523;23;20078;-74
2023/09/09 05:27:38;;;;;;;103.55;72.60;;;;;;;16.22;100.00;101431.88;6189519;23;20079;-74
2023/09/09 05:30:05;;;;;;;146.85;79.00;;;;;;;16.25;100.00;101434.31;6214623;23;20335;-74
2023/09/09 05:32:30;;;;;;;112.95;77.13;;;;;;;16.27;100.00;101436.00;6215821;23;20058;-74
2023/09/09 05:34:56;;;;;;;102.90;79.82;;;;;;;16.29;100.00;101442.16;6189764;23;20262;-74
2023/09/09 05:37:21;;;;;;;210.02;90.25;;;;;;;16.31;100.00;101441.03;6189274;23;20073;-74
2023/09/09 05:39:46;;;;;;;155.43;83.85;;;;;;;16.31;100.00;101443.75;6215898;23;20005;-75
2023/09/09 05:42:12;;;;;;;162.65;83.78;;;;;;;16.33;100.00;101455.31;6215529;23;20091;-74
2023/09/09 05:44:37;;;;;;;164.80;89.18;;;;;;;16.35;100.00;101456.03;6214967;23;20015;-74
2023/09/09 05:47:05;;;;;;;131.70;83.60;;;;;;;16.35;100.00;101445.19;6213798;23;20008;-75
2023/09/09 05:49:30;;;;;;;141.38;81.60;;;;;;;16.32;100.00;101453.59;6186446;23;20000;-75
2023/09/09 05:51:55;;;;;;;187.75;84.15;;;;;;;16.28;100.00;101454.84;6188770;23;20009;-75
2023/09/09 05:54:21;;;;;;;166.48;83.63;;;;;;;16.30;100.00;101458.31;6214845;23;20062;-73
2023/09/09 05:56:46;;;;;;;159.57;83.35;;;;;;;16.29;100.00;101456.56;6234084;23;20059;-74
2023/09/09 05:59:11;;;;;;;150.23;83.68;;;;;;;16.29;100.00;101456.56;6232707;23;20008;-74
2023/09/09 06:01:37;;;;;;;135.95;86.45;;;;;;;16.33;100.00;101460.75;6234993;23;19999;-74
2023/09/09 06:04:02;;;;;;;115.68;90.25;;;;;;;16.35;100.00;101461.44;6227838;23;20063;-73
2023/09/09 06:06:27;;;;;;;124.90;84.07;;;;;;;16.34;100.00;101459.75;6186991;23;20454;-72
2023/09/09 06:08:53;;;;;;;136.02;79.95;;;;;;;16.31;100.00;101464.56;6214112;23;19997;-72
2023/09/09 06:11:18;;;;;;;109.68;82.32;;;;;;;16.32;100.00;101467.16;6214940;23;20008;-72
2023/09/09 06:13:43;;;;;;;98.13;81.55;;;;;;;16.33;100.00;101466.16;6214504;23;20108;-73
2023/09/09 06:16:09;;;;;;;125.88;82.95;;;;;;;16.29;100.00;101469.28;6215149;23;20005;-74
2023/09/09 06:18:34;;;;;;;94.50;76.03;;;;;;;16.30;100.00;101469.16;6217285;23;20028;-72
2023/09/09 06:20:59;;;;;;;101.35;76.82;;;;;;;16.29;100.00;101469.28;6192901;23;20063;-73
2023/09/09 06:23:25;;;;;;;101.10;80.88;;;;;;;16.32;100.00;101474.44;6220872;23;20069;-74
2023/09/09 06:25:50;;;;;;;99.55;78.82;;;;;;;16.30;100.00;101476.44;6219496;23;20015;-73
2023/09/09 06:28:15;;;;;;;87.97;76.20;;;;;;;16.30;100.00;101477.28;6190373;23;20317;-73
2023/09/09 06:30:44;;;;;;;84.90;75.18;;;;;;;16.33;100.00;101485.16;6217143;23;20001;-74
2023/09/09 06:33:10;;;;;;;86.43;77.25;;;;;;;16.34;100.00;101486.00;6212871;23;20512;-74
2023/09/09 06:35:35;;;;;;;83.85;74.95;;;;;;;16.37;100.00;101485.72;6185626;23;20095;-74
2023/09/09 06:38:00;;;;;;;85.18;75.32;;;;;;;16.35;100.00;101488.59;6212779;23;20445;-76
2023/09/09 06:40:27;;;;;;;83.20;74.57;;;;;;;16.38;100.00;101492.88;6211067;23;20083;-76
2023/09/09 06:42:52;;;;;;;85.25;76.28;;;;;;;16.41;100.00;101489.91;6212978;23;20149;-72
2023/09/09 06:45:18;;;;;;;83.32;74.55;;;;;;;16.47;100.00;101492.09;6213981;23;20023;-73
2023/09/09 06:47:46;;;;;;;83.43;74.40;;;;;;;16.51;100.00;101492.66;6213829;23;20224;-74
2023/09/09 06:50:11;;;;;;;84.22;75.88;;;;;;;16.55;100.00;101494.97;6188872;23;20134;-75
2023/09/09 06:52:38;;;;;;;87.55;78.47;;;;;;;16.57;100.00;101498.44;6216239;23;20345;-74
2023/09/09 06:55:08;;;;;;;83.82;74.90;;;;;;;16.65;100.00;101500.44;6185616;23;20409;-74
2023/09/09 06:57:33;;;;;;;;;;;;;;;16.73;100.00;101497.91;6212821;23;20005;-73
2023/09/09 06:59:58;;;;;;;109.60;76.65;;;;;;;16.69;100.00;101504.63;6212748;23;20022;-73
2023/09/09 07:02:23;;;;;;;95.82;80.00;;;;;;;16.71;100.00;101508.03;6184394;23;20004;-72
2023/09/09 07:04:49;;;;;;;85.93;76.82;;;;;;;16.76;100.00;101503.06;6212468;23;20326;-74
2023/09/09 07:07:14;;;;;;;87.35;78.28;;;;;;;16.81;100.00;101510.81;6186377;23;20379;-75
2023/09/09 07:09:39;;;;;;;88.57;78.47;;;;;;;16.80;100.00;101505.50;6212596;23;20000;-75
2023/09/09 07:12:05;;;;;;;88.55;78.53;;;;;;;16.82;100.00;101511.66;6183771;23;20008;-73
2023/09/09 07:14:31;;;;;;;91.50;81.60;;;;;;;16.84;100.00;101509.66;6212482;23;19996;-76
2023/09/09 07:16:56;;;;;;;117.63;83.85;;;;;;;16.84;100.00;101510.53;6184573;23;20032;-77
2023/09/09 07:19:21;;;;;;;125.57;109.95;;;;;;;16.89;100.00;101510.13;6210521;23;20027;-75
2023/09/09 07:21:47;;;;;;;104.38;93.25;;;;;;;16.96;100.00;101514.03;6211680;23;20014;-73
2023/09/09 07:24:12;;;;;;;103.25;91.97;;;;;;;17.05;100.00;101518.63;6211130;23;20019;-73
2023/09/09 07:26:37;;;;;;;109.10;92.25;;;;;;;17.12;100.00;101518.94;6211227;23;20329;-74
2023/09/09 07:29:03;;;;;;;113.30;101.05;;;;;;;17.20;100.00;101520.94;6211534;23;20091;-75
2023/09/09 07:31:29;;;;;;;100.40;89.45;;;;;;;17.27;100.00;101520.25;6211125;23;20039;-74
2023/09/09 07:33:55;;;;;;;98.35;88.03;;;;;;;17.32;100.00;101518.97;6211502;23;20008;-73
2023/09/09 07:36:20;;;;;;;97.55;87.22;;;;;;;17.32;100.00;101525.28;6211770;23;20004;-73
2023/09/09 07:38:46;;;;;;;105.38;93.90;;;;;;;17.39;100.00;101533.72;6210933;23;20012;-72
2023/09/09 07:41:11;;;;;;;108.40;96.18;;;;;;;17.47;100.00;101528.44;6213466;23;20058;-73
2023/09/09 07:43:36;;;;;;;109.13;96.22;;;;;;;17.53;100.00;101535.19;6187331;23;20000;-73
2023/09/09 07:46:02;;;;;;;109.95;97.70;;;;;;;17.59;100.00;101537.31;6212034;23;20015;-73
2023/09/09 07:48:27;;;;;;;115.28;99.85;;;;;;;17.64;100.00;101526.88;6210704;23;20342;-72
2023/09/09 07:50:54;;;;;;;113.63;101.32;;;;;;;17.69;100.00;101537.31;6210418;23;20008;-72
2023/09/09 07:53:20;;;;;;;115.80;103.07;;;;;;;17.73;100.00;101536.03;6212756;23;20083;-72
2023/09/09 07:55:49;;;;;;;125.65;108.82;;;;;;;17.76;100.00;101539.34;6212170;23;20001;-72
2023/09/09 07:58:16;;;;;;;127.30;113.78;;;;;;;17.85;100.00;101536.75;6184682;23;20730;-71
2023/09/09 08:00:41;;;;;;;125.82;111.07;;;;;;;17.89;100.00;101536.34;6184922;23;20055;-71
2023/09/09 08:03:07;;;;;;;150.20;133.45;;;;;;;17.94;100.00;101530.50;6184516;23;20009;-71
2023/09/09 08:05:33;;;;;;;135.82;121.03;;;;;;;18.01;100.00;101541.63;6211256;23;20004;-72
2023/09/09 08:07:59;;;;;;;124.47;111.10;;;;;;;18.07;100.00;101538.31;6210829;23;20360;-72
2023/09/09 08:10:24;;;;;;;120.65;104.97;;;;;;;18.12;100.00;101539.63;6185096;23;20016;-72
2023/09/09 08:12:49;;;;;;;128.00;114.10;;;;;;;18.17;100.00;101540.06;6212127;23;20011;-76
2023/09/09 08:15:15;;;;;;;132.13;116.50;;;;;;;18.24;100.00;101548.47;6210357;23;20004;-75
2023/09/09 08:17:40;;;;;;;130.75;116.70;;;;;;;18.30;100.00;101547.91;6183427;23;20382;-74
2023/09/09 08:20:07;;;;;;;128.93;113.60;;;;;;;18.39;100.00;101546.19;6182040;23;20088;-74
2023/09/09 08:22:36;;;;;;;138.23;119.63;;;;;;;18.50;100.00;101548.69;6183857;23;20013;-74
2023/09/09 08:25:02;;;;;;;86.03;73.68;;;;;;;18.53;100.00;101553.00;6183722;23;20016;-75
2023/09/09 08:27:28;;;;;;;127.88;112.10;;;;;;;18.62;100.00;101553.97;6211127;23;20032;-74
2023/09/09 08:29:54;;;;;;;133.98;117.95;;;;;;;18.68;100.00;101550.66;6211090;23;20083;-75
2023/09/09 08:32:19;;;;;;;125.20;111.78;;;;;;;18.77;100.00;101551.63;6184254;23;20004;-75
2023/09/09 08:34:45;;;;;;;123.18;109.43;;;;;;;18.83;100.00;101551.06;6211634;23;20005;-75
2023/09/09 08:37:10;;;;;;;121.65;108.30;;;;;;;18.90;100.00;101551.34;6184644;23;20003;-76
2023/09/09 08:39:35;;;;;;;127.15;113.30;;;;;;;18.97;100.00;101552.44;6183948;23;20154;-76
2023/09/09 08:42:12;;;;;;;126.78;112.57;;;;;;;19.03;100.00;101558.16;6210349;23;20027;-74
2023/09/09 08:45:12;;;;;;;127.80;113.63;;;;;;;19.14;100.00;101553.53;6210671;23;20005;-75
2023/09/09 08:47:38;;;;;;;115.40;103.00;;;;;;;19.23;100.00;101560.78;6184438;23;20015;-76
2023/09/09 08:50:04;;;;;;;130.63;117.35;;;;;;;19.27;100.00;101561.31;6184125;23;20012;-77
2023/09/09 08:52:30;;;;;;;76.18;65.32;;;;;;;19.28;100.00;101557.59;6173545;23;20016;-76
2023/09/09 08:54:55;;;;;;;130.60;114.78;;;;;;;19.34;100.00;101562.44;6201673;23;20400;-76
2023/09/09 08:57:22;;;;;;;122.93;109.82;;;;;;;19.40;100.00;101559.13;6173612;23;20033;-76
2023/09/09 08:59:49;;;;;;;112.07;100.10;;;;;;;19.49;100.00;101560.91;6174504;23;20059;-75
2023/09/09 09:02:15;;;;;;;103.60;92.35;;;;;;;19.55;100.00;101565.75;6204648;23;20438;-75
2023/09/09 09:04:40;;;;;;;85.32;75.82;;;;;;;19.60;100.00;101561.69;6209675;23;20005;-73
2023/09/09 09:07:07;;;;;;;102.90;90.95;;;;;;;19.68;100.00;101572.69;6210011;23;20008;-76
2023/09/09 09:09:34;;;;;;;80.43;71.75;;;;;;;19.78;100.00;101565.34;6210086;23;20281;-73
2023/09/09 09:12:01;;;;;;;75.93;64.85;;;;;;;19.84;100.00;101577.47;6210495;23;20027;-73
2023/09/09 09:14:27;;;;;;;83.63;70.65;;;;;;;19.89;100.00;101570.53;6182846;23;20031;-75
2023/09/09 09:16:54;;;;;;;43.45;33.53;;;;;;;19.87;100.00;101569.84;6184004;23;20121;-75
2023/09/09 09:19:26;;;;;;;43.72;38.47;;;;;;;19.89;100.00;101576.00;6183830;23;20004;-77
2023/09/09 09:21:52;;;;;;;35.13;25.13;;;;;;;19.87;100.00;101580.75;6210889;23;20011;-79
2023/09/09 09:24:40;;;;;;;33.70;27.27;;;;;;;19.87;100.00;101575.31;6186214;23;20016;-81
2023/09/09 09:27:13;;;;;;;44.45;38.63;;;;;;;19.95;100.00;101579.13;6222259;23;20623;-81
2023/09/09 09:29:40;;;;;;;28.73;18.05;;;;;;;19.90;100.00;101571.41;6189290;23;20023;-80
2023/09/09 09:32:06;;;;;;;33.05;23.42;;;;;;;20.00;100.00;101571.31;6187722;23;20004;-81
2023/09/09 09:34:33;;;;;;;30.20;21.25;;;;;;;20.08;100.00;101571.38;6191504;23;20021;-82
2023/09/09 09:37:02;;;;;;;34.55;27.25;;;;;;;20.14;100.00;101568.03;6220666;23;20008;-81
2023/09/09 09:39:37;;;;;;;38.75;30.95;;;;;;;20.24;100.00;101566.06;6190014;23;20004;-80
2023/09/09 09:42:03;;;;;;;30.60;23.77;;;;;;;20.35;100.00;101572.28;6192304;23;20229;-81
2023/09/09 09:44:29;;;;;;;37.10;29.25;;;;;;;20.45;100.00;101567.56;6219872;23;20004;-81
2023/09/09 09:47:03;;;;;;;27.33;17.25;;;;;;;20.43;100.00;101573.19;6191539;23;20072;-81
2023/09/09 09:49:40;;;;;;;31.25;22.92;;;;;;;20.50;100.00;101576.16;6194957;23;20095;-81
2023/09/09 09:52:07;;;;;;;29.48;19.58;;;;;;;20.53;100.00;101575.84;6187636;23;20001;-88
2023/09/09 09:54:34;;;;;;;26.80;18.60;;;;;;;20.63;100.00;101569.41;6183351;23;20027;-85
2023/09/09 09:57:02;;;;;;;28.00;19.45;;;;;;;20.66;100.00;101567.25;6209651;23;20000;-86
2023/09/09 09:59:35;;;;;;;25.13;16.23;;;;;;;20.66;100.00;101567.25;6182601;23;20011;-85
2023/09/09 10:02:07;;;;;;;24.45;13.55;;;;;;;20.67;100.00;101568.09;6179380;23;20004;-85
2023/09/09 10:04:40;;;;;;;22.90;11.90;;;;;;;20.70;100.00;101560.41;6176714;23;20004;-85
2023/09/09 10:07:11;;;;;;;19.70;10.32;;;;;;;20.72;100.00;101565.75;6209849;23;20373;-85
2023/09/09 10:09:44;;;;;;;25.02;14.02;;;;;;;20.80;100.00;101565.78;6182887;23;20008;-86
2023/09/09 10:12:18;;;;;;;19.83;9.90;;;;;;;20.87;100.00;101571.47;6210687;23;20035;-86
2023/09/09 10:14:45;;;;;;;24.42;14.65;;;;;;;20.96;100.00;101567.72;6183305;23;20005;-85
2023/09/09 10:17:12;;;;;;;30.30;21.90;;;;;;;21.05;100.00;101565.91;6183000;23;20119;-85
2023/09/09 10:19:40;;;;;;;20.38;10.40;;;;;;;21.06;100.00;101560.25;6209981;23;20410;-86
2023/09/09 10:22:06;;;;;;;20.05;10.27;;;;;;;21.04;100.00;101559.59;6183453;23;20039;-86
2023/09/09 10:24:34;;;;;;;19.95;9.65;;;;;;;21.04;100.00;101570.53;6209488;23;20012;-86
2023/09/09 10:27:02;;;;;;;23.30;12.43;;;;;;;21.09;100.00;101565.41;6183315;23;20058;-86
2023/09/09 10:29:29;;;;;;;22.07;10.60;;;;;;;21.09;100.00;101565.41;6210160;23;20004;-85
2023/09/09 10:32:00;;;;;;;24.08;12.50;;;;;;;21.18;100.00;101557.25;6183587;23;20011;-85
2023/09/09 10:34:28;;;;;;;20.73;10.73;;;;;;;21.22;100.00;101561.38;6185261;23;20426;-85
2023/09/09 10:36:57;;;;;;;23.15;14.70;;;;;;;21.32;100.00;101561.22;6184996;23;20005;-85
2023/09/09 10:39:23;;;;;;;23.13;14.95;;;;;;;21.36;100.00;101559.84;6182812;23;20009;-84
2023/09/09 10:41:49;;;;;;;21.80;11.35;;;;;;;21.43;100.00;101563.66;6211043;23;20005;-85
2023/09/09 10:44:15;;;;;;;20.10;10.93;;;;;;;21.47;100.00;101557.66;6186532;23;20047;-84
2023/09/09 10:46:41;;;;;;;19.33;9.25;;;;;;;21.46;100.00;101553.25;6183864;23;20008;-84
2023/09/09 10:49:06;;;;;;;21.30;10.02;;;;;;;21.47;100.00;101552.19;6210952;23;20000;-85
2023/09/09 10:51:50;;;;;;;21.65;12.10;;;;;;;21.51;100.00;101560.97;6211336;23;20008;-84
2023/09/09 10:54:18;;;;;;;23.70;11.85;;;;;;;21.54;100.00;101568.84;6182874;23;20094;-85
2023/09/09 10:56:46;;;;;;;19.23;9.75;;;;;;;21.56;100.00;101564.03;6183367;23;20023;-86